createdAt,value
2022-09-03T00:01:44.109Z,19.01
2022-09-03T00:04:21.361Z,18.88
2022-09-03T00:06:56.114Z,18.84
2022-09-03T00:09:25.465Z,19.04
2022-09-03T00:11:54.218Z,18.93
2022-09-03T00:14:47.608Z,19.01
2022-09-03T00:17:16.515Z,18.95
2022-09-03T00:19:59.060Z,18.99
2022-09-03T00:22:33.580Z,18.90
2022-09-03T00:25:03.149Z,18.89
2022-09-03T00:27:30.567Z,18.88
2022-09-03T00:29:58.762Z,18.92
2022-09-03T00:32:47.425Z,18.92
2022-09-03T00:35:23.078Z,18.85
2022-09-03T00:37:53.607Z,18.63
2022-09-03T00:40:33.132Z,18.89
2022-09-03T00:43:19.112Z,18.83
2022-09-03T00:45:57.588Z,18.74
2022-09-03T00:48:28.009Z,18.41
2022-09-03T00:50:56.042Z,18.61
2022-09-03T00:53:26.917Z,18.52
2022-09-03T00:56:16.125Z,18.44
2022-09-03T00:59:10.186Z,18.57
2022-09-03T01:01:55.980Z,18.68
2022-09-03T01:04:35.630Z,18.54
2022-09-03T01:07:06.613Z,18.54
2022-09-03T01:09:54.545Z,18.51
2022-09-03T01:12:41.101Z,18.52
2022-09-03T01:15:10.538Z,18.74
2022-09-03T01:17:43.875Z,18.69
2022-09-03T01:20:22.928Z,18.65
2022-09-03T01:23:05.558Z,18.37
2022-09-03T01:25:45.012Z,18.31
2022-09-03T01:28:33.433Z,18.31
2022-09-03T01:31:11.159Z,18.25
2022-09-03T01:33:44.761Z,18.26
2022-09-03T01:36:16.853Z,18.29
2022-09-03T01:38:47.438Z,18.34
2022-09-03T01:41:45.798Z,18.40
2022-09-03T01:44:13.064Z,18.44
2022-09-03T01:46:40.975Z,18.35
2022-09-03T01:49:10.039Z,18.17
2022-09-03T01:51:37.211Z,18.37
2022-09-03T01:54:07.686Z,18.22
2022-09-03T01:56:38.117Z,18.23
2022-09-03T01:59:11.878Z,18.32
2022-09-03T02:01:44.247Z,18.21
2022-09-03T02:04:20.601Z,18.25
2022-09-03T02:06:48.965Z,18.28
2022-09-03T02:09:19.590Z,18.36
2022-09-03T02:11:52.262Z,18.31
2022-09-03T02:14:19.484Z,18.27
2022-09-03T02:16:46.948Z,18.27
2022-09-03T02:19:14.784Z,18.38
2022-09-03T02:21:46.857Z,17.85
2022-09-03T02:24:14.083Z,18.02
2022-09-03T02:26:41.751Z,18.25
2022-09-03T02:29:08.937Z,18.03
2022-09-03T02:31:36.435Z,17.95
2022-09-03T02:34:03.856Z,18.03
2022-09-03T02:36:32.505Z,17.99
2022-09-03T02:39:00.635Z,17.97
2022-09-03T02:41:28.116Z,18.17
2022-09-03T02:43:57.486Z,17.91
2022-09-03T02:46:27.703Z,17.95
2022-09-03T02:48:55.206Z,18.11
2022-09-03T02:51:22.501Z,18.18
2022-09-03T02:53:50.883Z,17.76
2022-09-03T02:56:18.734Z,18.01
2022-09-03T02:58:45.920Z,17.98
2022-09-03T03:01:19.777Z,17.88
2022-09-03T03:03:52.158Z,17.95
2022-09-03T03:06:22.260Z,17.88
2022-09-03T03:08:49.964Z,17.94
2022-09-03T03:11:18.366Z,18.00
2022-09-03T03:13:46.411Z,18.11
2022-09-03T03:16:14.043Z,18.11
2022-09-03T03:18:41.792Z,17.84
2022-09-03T03:21:10.151Z,17.79
2022-09-03T03:23:37.581Z,17.94
2022-09-03T03:26:06.873Z,17.99
2022-09-03T03:28:34.370Z,17.72
2022-09-03T03:31:05.966Z,17.61
2022-09-03T03:33:33.371Z,17.87
2022-09-03T03:36:04.104Z,17.93
2022-09-03T03:38:32.050Z,17.87
2022-09-03T03:40:59.360Z,17.68
2022-09-03T03:43:26.506Z,17.67
2022-09-03T03:45:58.031Z,17.49
2022-09-03T03:48:25.645Z,17.55
2022-09-03T03:50:53.250Z,17.72
2022-09-03T03:53:20.744Z,17.73
2022-09-03T03:55:57.406Z,17.53
2022-09-03T03:58:24.975Z,17.67
2022-09-03T04:00:52.382Z,17.66
2022-09-03T04:03:19.933Z,17.64
2022-09-03T04:05:56.739Z,17.71
2022-09-03T04:08:24.207Z,17.67
2022-09-03T04:10:51.604Z,17.61
2022-09-03T04:13:18.780Z,17.65
2022-09-03T04:15:46.682Z,17.61
2022-09-03T04:18:14.255Z,17.87
2022-09-03T04:20:41.446Z,17.53
2022-09-03T04:23:08.851Z,17.72
2022-09-03T04:25:36.746Z,17.79
2022-09-03T04:28:04.679Z,17.81
2022-09-03T04:30:32.986Z,17.64
2022-09-03T04:33:01.248Z,17.45
2022-09-03T04:35:30.233Z,17.68
2022-09-03T04:37:57.990Z,17.85
2022-09-03T04:40:25.170Z,17.62
2022-09-03T04:42:56.579Z,17.60
2022-09-03T04:45:24.017Z,17.54
2022-09-03T04:47:57.432Z,17.61
2022-09-03T04:50:28.057Z,17.95
2022-09-03T04:53:07.817Z,17.78
2022-09-03T04:55:36.322Z,17.89
2022-09-03T04:58:07.976Z,17.76
2022-09-03T05:00:38.737Z,17.64
2022-09-03T05:03:06.039Z,17.79
2022-09-03T05:05:37.458Z,17.85
2022-09-03T05:08:07.300Z,17.79
2022-09-03T05:10:38.580Z,17.96
2022-09-03T05:13:07.098Z,17.95
2022-09-03T05:15:35.348Z,17.76
2022-09-03T05:18:03.050Z,18.02
2022-09-03T05:20:31.150Z,18.27
2022-09-03T05:23:01.489Z,18.17
2022-09-03T05:25:29.010Z,18.17
2022-09-03T05:27:56.515Z,18.24
2022-09-03T05:30:24.172Z,18.31
2022-09-03T05:32:52.127Z,18.35
2022-09-03T05:35:24.095Z,18.56
2022-09-03T05:37:55.981Z,18.54
2022-09-03T05:40:23.800Z,18.51
2022-09-03T05:42:54.726Z,18.69
2022-09-03T05:45:23.335Z,18.42
2022-09-03T05:47:50.891Z,18.80
2022-09-03T05:50:18.614Z,18.81
2022-09-03T05:52:45.974Z,18.84
2022-09-03T05:55:13.754Z,18.86
2022-09-03T05:57:43.496Z,18.85
2022-09-03T06:00:11.014Z,19.08
2022-09-03T06:02:39.361Z,19.21
2022-09-03T06:05:08.246Z,19.11
2022-09-03T06:07:35.793Z,19.19
2022-09-03T06:10:04.445Z,19.21
2022-09-03T06:12:32.073Z,19.27
2022-09-03T06:14:59.376Z,19.42
2022-09-03T06:17:26.767Z,19.66
2022-09-03T06:19:54.438Z,19.77
2022-09-03T06:22:24.919Z,19.78
2022-09-03T06:24:54.537Z,19.97
2022-09-03T06:27:21.758Z,20.08
2022-09-03T06:29:49.186Z,20.23
2022-09-03T06:32:16.752Z,20.44
2022-09-03T06:34:44.119Z,20.60
2022-09-03T06:37:11.420Z,20.88
2022-09-03T06:39:38.886Z,21.07
2022-09-03T06:42:06.309Z,21.21
2022-09-03T06:44:33.783Z,21.26
2022-09-03T06:47:01.582Z,21.33
2022-09-03T06:49:28.827Z,21.17
2022-09-03T06:51:56.037Z,21.07
2022-09-03T06:54:25.204Z,21.59
2022-09-03T06:56:52.513Z,21.82
2022-09-03T06:59:19.705Z,22.28
2022-09-03T07:01:47.771Z,22.47
2022-09-03T07:04:20.102Z,22.72
2022-09-03T07:06:47.923Z,22.91
2022-09-03T07:09:15.936Z,23.38
2022-09-03T07:11:48.039Z,23.57
2022-09-03T07:14:19.591Z,23.98
2022-09-03T07:16:47.358Z,24.29
2022-09-03T07:19:14.720Z,24.32
2022-09-03T07:21:48.112Z,24.62
2022-09-03T07:24:16.243Z,24.42
2022-09-03T07:26:48.707Z,24.71
2022-09-03T07:29:20.107Z,24.98
2022-09-03T07:31:51.340Z,25.04
2022-09-03T07:34:19.018Z,25.25
2022-09-03T07:36:51.281Z,25.61
2022-09-03T07:39:19.219Z,25.84
2022-09-03T07:41:46.741Z,25.69
2022-09-03T07:44:15.348Z,25.61
2022-09-03T07:46:43.731Z,26.07
2022-09-03T07:49:11.412Z,25.95
2022-09-03T07:51:38.909Z,26.46
2022-09-03T07:54:11.212Z,26.25
2022-09-03T07:56:39.564Z,26.26
2022-09-03T07:59:07.183Z,25.85
2022-09-03T08:01:34.964Z,26.53
2022-09-03T08:04:02.953Z,26.53
2022-09-03T08:06:30.354Z,26.09
2022-09-03T08:09:03.706Z,26.26
2022-09-03T08:11:32.836Z,26.29
2022-09-03T08:14:01.383Z,26.58
2022-09-03T08:16:30.656Z,26.60
2022-09-03T08:18:58.248Z,27.14
2022-09-03T08:21:26.245Z,26.74
2022-09-03T08:23:54.814Z,26.31
2022-09-03T08:26:22.348Z,26.37
2022-09-03T08:28:49.683Z,26.62
2022-09-03T08:31:19.116Z,26.72
2022-09-03T08:33:47.722Z,26.69
2022-09-03T08:36:17.929Z,26.96
2022-09-03T08:38:46.470Z,26.96
2022-09-03T08:41:18.453Z,27.49
2022-09-03T08:43:45.534Z,26.77
2022-09-03T08:46:12.735Z,26.72
2022-09-03T08:48:40.213Z,27.18
2022-09-03T08:51:14.500Z,27.11
2022-09-03T08:53:45.342Z,27.15
2022-09-03T08:56:13.942Z,26.93
2022-09-03T08:58:44.865Z,27.19
2022-09-03T09:01:18.830Z,27.29
2022-09-03T09:03:46.284Z,27.39
2022-09-03T09:06:32.396Z,27.31
2022-09-03T09:09:08.845Z,26.77
2022-09-03T09:11:50.955Z,27.36
2022-09-03T09:14:40.309Z,27.39
2022-09-03T09:17:16.862Z,27.71
2022-09-03T09:20:08.209Z,27.84
2022-09-03T09:22:38.759Z,28.02
2022-09-03T09:25:09.881Z,27.60
2022-09-03T09:27:37.200Z,27.30
2022-09-03T09:30:04.841Z,27.72
2022-09-03T09:32:34.996Z,28.10
2022-09-03T09:35:02.567Z,27.68
2022-09-03T09:37:30.335Z,27.44
2022-09-03T09:39:58.736Z,27.97
2022-09-03T09:42:26.467Z,27.26
2022-09-03T09:44:53.906Z,27.41
2022-09-03T09:47:23.112Z,27.85
2022-09-03T09:49:52.177Z,27.98
2022-09-03T09:52:19.604Z,28.00
2022-09-03T09:54:47.458Z,28.49
2022-09-03T09:57:18.312Z,27.73
2022-09-03T09:59:49.932Z,27.90
2022-09-03T10:02:22.477Z,27.87
2022-09-03T10:04:50.161Z,27.73
2022-09-03T10:07:26.903Z,28.10
2022-09-03T10:10:01.623Z,28.54
2022-09-03T10:12:30.816Z,28.07
2022-09-03T10:15:10.635Z,28.35
2022-09-03T10:17:46.416Z,28.13
2022-09-03T10:20:31.519Z,28.57
2022-09-03T10:23:02.729Z,28.50
2022-09-03T10:25:41.267Z,28.59
2022-09-03T10:28:10.089Z,28.09
2022-09-03T10:30:54.578Z,28.64
2022-09-03T10:33:23.409Z,28.64
2022-09-03T10:35:52.981Z,28.62
2022-09-03T10:38:23.500Z,28.84
2022-09-03T10:40:56.068Z,28.64
2022-09-03T10:43:35.691Z,28.52
2022-09-03T10:46:07.283Z,28.31
2022-09-03T10:48:53.643Z,28.33
2022-09-03T10:51:21.046Z,29.05
2022-09-03T10:54:03.920Z,28.98
2022-09-03T10:56:51.232Z,29.03
2022-09-03T10:59:29.375Z,28.77
2022-09-03T11:02:15.255Z,28.39
2022-09-03T11:04:45.393Z,28.32
2022-09-03T11:07:13.299Z,28.58
2022-09-03T11:09:48.539Z,28.91
2022-09-03T11:12:17.781Z,29.21
2022-09-03T11:14:54.671Z,28.60
2022-09-03T11:17:24.151Z,28.03
2022-09-03T11:19:53.198Z,27.91
2022-09-03T11:22:23.092Z,27.54
2022-09-03T11:24:52.906Z,27.87
2022-09-03T11:27:22.837Z,27.74
2022-09-03T11:29:51.676Z,27.78
2022-09-03T11:32:21.935Z,27.54
2022-09-03T11:34:50.330Z,28.35
2022-09-03T11:37:24.754Z,28.51
2022-09-03T11:39:56.901Z,28.59
2022-09-03T11:42:37.324Z,28.54
2022-09-03T11:45:21.445Z,29.18
2022-09-03T11:47:48.744Z,28.58
2022-09-03T11:50:21.138Z,29.08
2022-09-03T11:52:48.993Z,28.61
2022-09-03T11:55:38.254Z,27.84
2022-09-03T11:58:20.659Z,28.01
2022-09-03T12:00:53.256Z,27.98
2022-09-03T12:03:28.489Z,28.18
2022-09-03T12:06:05.436Z,27.40
2022-09-03T12:08:33.498Z,27.58
2022-09-03T12:11:14.030Z,28.41
2022-09-03T12:14:00.668Z,28.83
2022-09-03T12:16:40.406Z,28.63
2022-09-03T12:19:12.534Z,28.99
2022-09-03T12:21:41.075Z,28.41
2022-09-03T12:24:11.948Z,28.63
2022-09-03T12:26:40.848Z,28.77
2022-09-03T12:29:18.319Z,28.42
2022-09-03T12:31:47.379Z,28.74
2022-09-03T12:34:18.911Z,28.41
2022-09-03T12:36:47.719Z,28.66
2022-09-03T12:39:16.296Z,28.48
2022-09-03T12:42:01.280Z,28.54
2022-09-03T12:44:31.411Z,29.16
2022-09-03T12:49:50.789Z,27.88
2022-09-03T12:52:17.923Z,27.93
2022-09-03T12:54:51.297Z,28.15
2022-09-03T12:57:20.863Z,28.02
2022-09-03T12:59:48.129Z,28.32
2022-09-03T13:02:18.124Z,27.69
2022-09-03T13:04:45.731Z,27.68
2022-09-03T13:07:14.476Z,27.51
2022-09-03T13:09:41.867Z,27.27
2022-09-03T13:12:20.664Z,27.84
2022-09-03T13:14:48.546Z,27.88
2022-09-03T13:17:26.551Z,28.41
2022-09-03T13:19:59.634Z,28.57
2022-09-03T13:22:30.216Z,28.38
2022-09-03T13:25:09.876Z,28.18
2022-09-03T13:27:43.565Z,28.02
2022-09-03T13:30:17.424Z,28.04
2022-09-03T13:32:51.156Z,27.37
2022-09-03T13:35:39.801Z,27.78
2022-09-03T13:38:10.386Z,27.78
2022-09-03T13:40:42.071Z,27.52
2022-09-03T13:43:25.437Z,27.62
2022-09-03T13:46:03.543Z,27.70
2022-09-03T13:48:50.913Z,28.01
2022-09-03T13:51:22.956Z,27.98
2022-09-03T13:53:53.991Z,28.04
2022-09-03T13:56:21.113Z,28.42
2022-09-03T13:58:54.272Z,28.16
2022-09-03T14:01:21.645Z,28.32
2022-09-03T14:03:49.419Z,28.23
2022-09-03T14:06:21.777Z,28.36
2022-09-03T14:09:09.883Z,28.28
2022-09-03T14:11:55.851Z,28.31
2022-09-03T14:14:42.350Z,28.19
2022-09-03T14:17:17.235Z,28.58
2022-09-03T14:19:44.735Z,27.94
2022-09-03T14:22:22.236Z,27.71
2022-09-03T14:24:57.718Z,27.75
2022-09-03T14:27:26.174Z,27.60
2022-09-03T14:29:55.244Z,28.14
2022-09-03T14:32:24.626Z,28.22
2022-09-03T14:35:08.667Z,28.43
2022-09-03T14:37:37.819Z,28.62
2022-09-03T14:40:24.106Z,28.37
2022-09-03T14:43:01.258Z,28.43
2022-09-03T14:45:34.742Z,28.40
2022-09-03T14:48:02.302Z,28.48
2022-09-03T14:50:38.512Z,28.27
2022-09-03T14:53:15.478Z,27.93
2022-09-03T14:55:49.033Z,27.22
2022-09-03T14:58:16.883Z,27.96
2022-09-03T15:00:56.419Z,27.67
2022-09-03T15:03:36.292Z,27.73
2022-09-03T15:06:24.871Z,27.11
2022-09-03T15:09:07.943Z,27.33
2022-09-03T15:11:35.658Z,27.33
2022-09-03T15:14:29.415Z,27.58
2022-09-03T15:17:16.066Z,27.37
2022-09-03T15:19:59.233Z,27.18
2022-09-03T15:22:42.121Z,27.50
2022-09-03T15:25:23.517Z,27.57
2022-09-03T15:28:02.320Z,27.53
2022-09-03T15:31:02.408Z,27.62
2022-09-03T15:33:29.600Z,27.16
2022-09-03T15:36:17.753Z,27.35
2022-09-03T15:38:53.114Z,27.39
2022-09-03T15:41:35.911Z,27.40
2022-09-03T15:44:03.670Z,27.19
2022-09-03T15:46:39.334Z,26.79
2022-09-03T15:49:29.757Z,26.59
2022-09-03T15:51:57.217Z,26.85
2022-09-03T15:54:43.088Z,27.04
2022-09-03T15:57:30.747Z,27.01
2022-09-03T16:00:00.631Z,27.14
2022-09-03T16:02:33.565Z,27.13
2022-09-03T16:05:05.993Z,27.10
2022-09-03T16:07:34.368Z,27.08
2022-09-03T16:10:26.837Z,27.11
2022-09-03T16:13:04.743Z,26.81
2022-09-03T16:15:43.529Z,26.72
2022-09-03T16:18:25.009Z,26.90
2022-09-03T16:20:55.297Z,26.57
2022-09-03T16:23:45.861Z,26.84
2022-09-03T16:26:29.987Z,26.82
2022-09-03T16:29:11.984Z,26.95
2022-09-03T16:31:40.048Z,27.05
2022-09-03T16:34:16.700Z,26.97
2022-09-03T16:37:05.017Z,26.99
2022-09-03T16:39:35.302Z,26.86
2022-09-03T16:42:07.681Z,26.72
2022-09-03T16:44:41.810Z,26.74
2022-09-03T16:47:16.623Z,26.75
2022-09-03T16:49:46.620Z,26.76
2022-09-03T16:52:19.897Z,26.67
2022-09-03T16:54:55.903Z,26.53
2022-09-03T16:57:28.677Z,26.38
2022-09-03T17:00:01.878Z,26.00
2022-09-03T17:02:41.530Z,25.99
2022-09-03T17:05:44.732Z,25.97
2022-09-03T17:08:16.146Z,25.90
2022-09-03T17:10:43.251Z,25.74
2022-09-03T17:13:29.089Z,25.66
2022-09-03T17:16:08.443Z,25.55
2022-09-03T17:18:44.369Z,25.65
2022-09-03T17:21:24.103Z,25.23
2022-09-03T17:23:54.268Z,25.19
2022-09-03T17:26:29.929Z,24.99
2022-09-03T17:29:16.340Z,24.95
2022-09-03T17:31:52.863Z,24.91
2022-09-03T17:34:32.667Z,24.98
2022-09-03T17:37:09.181Z,24.87
2022-09-03T17:39:36.389Z,24.71
2022-09-03T17:42:24.108Z,24.64
2022-09-03T17:45:11.518Z,24.47
2022-09-03T17:48:02.281Z,24.37
2022-09-03T17:50:33.631Z,24.44
2022-09-03T17:53:03.316Z,24.34
2022-09-03T17:55:37.786Z,24.22
2022-09-03T17:58:08.234Z,24.14
2022-09-03T18:00:42.460Z,24.09
2022-09-03T18:03:19.186Z,23.75
2022-09-03T18:05:52.263Z,23.77
2022-09-03T18:08:22.461Z,23.79
2022-09-03T18:10:54.214Z,23.69
2022-09-03T18:13:25.241Z,23.61
2022-09-03T18:16:01.118Z,23.70
2022-09-03T18:18:29.679Z,23.56
2022-09-03T18:21:24.300Z,23.54
2022-09-03T18:24:11.472Z,23.44
2022-09-03T18:27:24.996Z,23.32
2022-09-03T18:30:22.625Z,23.38
2022-09-03T18:33:12.239Z,23.29
2022-09-03T18:35:58.855Z,23.26
2022-09-03T18:38:46.084Z,23.24
2022-09-03T18:41:32.674Z,23.09
2022-09-03T18:44:27.986Z,22.95
2022-09-03T18:50:27.423Z,22.79
2022-09-03T18:53:31.020Z,22.97
2022-09-03T18:56:26.819Z,22.95
2022-09-03T18:59:13.319Z,22.90
2022-09-03T19:02:00.752Z,22.63
2022-09-03T19:04:48.148Z,22.77
2022-09-03T19:07:43.725Z,22.70
2022-09-03T19:10:31.213Z,22.52
2022-09-03T19:13:36.759Z,22.52
2022-09-03T19:16:33.820Z,22.54
2022-09-03T19:19:20.061Z,22.36
2022-09-03T19:22:16.119Z,22.24
2022-09-03T19:25:01.990Z,22.28
2022-09-03T19:28:24.126Z,22.19
2022-09-03T19:31:29.430Z,22.32
2022-09-03T19:34:35.679Z,22.18
2022-09-03T19:37:27.727Z,22.24
2022-09-03T19:40:30.919Z,21.94
2022-09-03T19:43:30.779Z,21.93
2022-09-03T19:46:32.647Z,21.87
2022-09-03T19:49:24.630Z,21.85
2022-09-03T19:52:10.845Z,21.91
2022-09-03T19:54:57.093Z,21.93
2022-09-03T19:57:43.899Z,21.81
2022-09-03T20:00:33.090Z,21.78
2022-09-03T20:03:20.745Z,21.87
2022-09-03T20:06:16.017Z,21.67
2022-09-03T20:09:02.863Z,21.73
2022-09-03T20:11:30.118Z,21.71
2022-09-03T20:14:13.645Z,21.65
2022-09-03T20:16:44.144Z,21.49
2022-09-03T20:19:15.550Z,21.45
2022-09-03T20:21:47.644Z,21.22
2022-09-03T20:24:34.654Z,21.40
2022-09-03T20:27:15.860Z,21.66
2022-09-03T20:30:00.244Z,21.51
2022-09-03T20:32:30.374Z,21.52
2022-09-03T20:35:00.746Z,21.11
2022-09-03T20:37:31.237Z,21.41
2022-09-03T20:40:07.991Z,21.09
2022-09-03T20:42:38.678Z,21.01
2022-09-03T20:45:20.430Z,21.06
2022-09-03T20:48:06.035Z,20.90
2022-09-03T20:50:50.267Z,20.81
2022-09-03T20:53:39.208Z,21.00
2022-09-03T20:56:10.684Z,20.86
2022-09-03T20:58:37.771Z,20.94
2022-09-03T21:01:09.166Z,21.03
2022-09-03T21:03:42.775Z,20.64
2022-09-03T21:06:29.249Z,20.86
2022-09-03T21:09:13.392Z,20.97
2022-09-03T21:11:50.007Z,20.80
2022-09-03T21:14:31.280Z,20.67
2022-09-03T21:17:08.827Z,20.56
2022-09-03T21:19:40.617Z,20.65
2022-09-03T21:22:17.626Z,20.51
2022-09-03T21:24:49.531Z,20.82
2022-09-03T21:27:20.885Z,20.68
2022-09-03T21:29:51.773Z,20.49
2022-09-03T21:32:23.449Z,20.61
2022-09-03T21:34:54.762Z,20.52
2022-09-03T21:37:22.028Z,20.62
2022-09-03T21:39:56.152Z,20.69
2022-09-03T21:42:26.507Z,20.52
2022-09-03T21:44:55.743Z,20.34
2022-09-03T21:47:22.910Z,20.58
2022-09-03T21:49:53.342Z,20.43
2022-09-03T21:52:25.834Z,20.50
2022-09-03T21:54:54.302Z,20.40
2022-09-03T21:57:45.445Z,20.53
2022-09-03T22:00:12.963Z,20.44
2022-09-03T22:02:41.813Z,20.40
2022-09-03T22:05:09.205Z,20.50
2022-09-03T22:07:36.382Z,20.33
2022-09-03T22:10:16.679Z,20.47
2022-09-03T22:12:47.341Z,20.38
2022-09-03T22:15:14.803Z,20.44
2022-09-03T22:17:56.940Z,20.35
2022-09-03T22:20:26.288Z,20.26
2022-09-03T22:22:57.666Z,20.26
2022-09-03T22:25:31.856Z,20.26
2022-09-03T22:28:03.441Z,20.01
2022-09-03T22:30:37.725Z,19.95
2022-09-03T22:33:23.481Z,20.04
2022-09-03T22:35:58.619Z,20.00
2022-09-03T22:38:31.949Z,20.08
2022-09-03T22:41:16.283Z,19.79
2022-09-03T22:43:44.156Z,20.00
2022-09-03T22:46:15.698Z,20.11
2022-09-03T22:49:01.710Z,20.05
2022-09-03T22:51:30.973Z,19.82
2022-09-03T22:53:58.091Z,19.96
2022-09-03T22:56:25.415Z,19.81
2022-09-03T22:58:56.651Z,19.70
2022-09-03T23:01:23.892Z,19.67
2022-09-03T23:03:54.149Z,19.58
2022-09-03T23:06:34.628Z,19.88
2022-09-03T23:09:09.326Z,19.82
2022-09-03T23:11:44.576Z,19.58
2022-09-03T23:14:31.957Z,19.62
2022-09-03T23:17:00.594Z,19.72
2022-09-03T23:19:39.485Z,19.60
2022-09-03T23:22:18.264Z,19.64
2022-09-03T23:24:47.891Z,19.63
2022-09-03T23:27:18.033Z,19.41
2022-09-03T23:29:45.789Z,19.82
2022-09-03T23:32:13.054Z,19.59
2022-09-03T23:34:40.722Z,19.74
2022-09-03T23:37:33.062Z,19.69
2022-09-03T23:40:07.620Z,19.52
2022-09-03T23:42:40.975Z,19.44
2022-09-03T23:45:15.907Z,19.51
2022-09-03T23:48:03.489Z,19.41
2022-09-03T23:50:46.290Z,19.43
2022-09-03T23:53:32.390Z,19.46
2022-09-03T23:56:08.484Z,19.30
2022-09-03T23:58:45.674Z,18.89
